Time;durP1;ratioP1;P1;durP2;ratioP2;P2;SDS_P1;SDS_P2;PMS_P1;PMS_P2;Temp;Humidity;BMP_temperature;BMP_pressure;BME280_temperature;BME280_humidity;BME280_pressure;Samples;Min_cycle;Max_cycle;Signal;HPM_P1;HPM_P2
2023/05/12 00:00:39;;;;;;;10.70;6.37;;;12.60;88.40;;;;;;5092086;28;20464;-77
2023/05/12 00:03:05;;;;;;;10.90;6.80;;;12.60;88.60;;;;;;5080855;28;20176;-77
2023/05/12 00:05:31;;;;;;;7.13;5.90;;;12.60;88.30;;;;;;5085983;28;20181;-76
2023/05/12 00:07:57;;;;;;;8.73;5.90;;;12.60;88.30;;;;;;5084942;28;20215;-76
2023/05/12 00:10:22;;;;;;;9.10;6.80;;;12.60;88.30;;;;;;5058459;28;20441;-76
2023/05/12 00:12:48;;;;;;;9.10;5.87;;;12.70;88.30;;;;;;5068931;28;20184;-76
2023/05/12 00:15:14;;;;;;;10.30;7.37;;;12.60;88.10;;;;;;5057565;28;20246;-76
2023/05/12 00:17:39;;;;;;;14.23;7.27;;;12.60;88.10;;;;;;5067078;28;20301;-75
2023/05/12 00:20:06;;;;;;;10.37;6.60;;;12.70;88.10;;;;;;5070262;28;20237;-77
2023/05/12 00:22:31;;;;;;;12.73;7.30;;;12.70;88.10;;;;;;5066490;28;20215;-75
2023/05/12 00:24:57;;;;;;;10.50;6.57;;;12.70;88.00;;;;;;5072249;28;20450;-75
2023/05/12 00:27:22;;;;;;;11.43;6.77;;;12.70;88.00;;;;;;5069760;28;20207;-76
2023/05/12 00:29:48;;;;;;;13.57;7.80;;;12.70;87.80;;;;;;5073480;28;20176;-76
2023/05/12 00:32:14;;;;;;;11.70;6.63;;;12.60;87.80;;;;;;5073149;28;20228;-75
2023/05/12 00:34:41;;;;;;;14.77;7.97;;;12.60;88.30;;;;;;5071986;28;20188;-75
2023/05/12 00:37:06;;;;;;;13.73;7.40;;;12.70;88.00;;;;;;5044063;28;20488;-76
2023/05/12 00:39:32;;;;;;;11.03;6.80;;;12.60;88.10;;;;;;5067084;28;20906;-78
2023/05/12 00:41:58;;;;;;;11.40;7.70;;;12.60;88.30;;;;;;5062754;28;20579;-75
2023/05/12 00:44:24;;;;;;;11.17;6.87;;;12.70;88.30;;;;;;5070722;28;20214;-75
2023/05/12 00:46:50;;;;;;;13.73;8.07;;;12.70;88.30;;;;;;5071760;28;20916;-75
2023/05/12 00:49:16;;;;;;;10.87;7.67;;;12.70;88.30;;;;;;5066503;28;20191;-76
2023/05/12 00:51:42;;;;;;;10.40;6.63;;;12.60;88.40;;;;;;5062724;28;20450;-75
2023/05/12 00:54:08;;;;;;;11.90;7.40;;;12.60;88.70;;;;;;5061431;28;20205;-74
2023/05/12 00:56:38;;;;;;;14.93;8.17;;;12.50;88.90;;;;;;5066595;28;20475;-75
2023/05/12 00:59:04;;;;;;;17.07;9.90;;;12.30;89.30;;;;;;5053467;28;20481;-76
2023/05/12 01:01:31;;;;;;;15.73;8.63;;;12.20;89.60;;;;;;5070879;28;21006;-74
2023/05/12 01:03:57;;;;;;;14.20;8.83;;;12.20;90.10;;;;;;5045022;28;20423;-75
2023/05/12 01:06:37;;;;;;;15.20;8.77;;;12.20;90.20;;;;;;5075458;28;20453;-74
2023/05/12 01:09:03;;;;;;;15.20;9.00;;;12.30;90.20;;;;;;5061878;28;20518;-75
2023/05/12 01:11:29;;;;;;;15.83;8.63;;;12.20;90.20;;;;;;5062459;28;20892;-75
2023/05/12 01:13:54;;;;;;;13.13;8.17;;;12.30;90.20;;;;;;5061388;28;20447;-75
2023/05/12 01:16:25;;;;;;;21.57;9.20;;;12.30;90.20;;;;;;5065137;28;20179;-77
2023/05/12 01:18:54;;;;;;;14.77;9.40;;;12.20;90.20;;;;;;5060404;28;20542;-76
2023/05/12 01:21:20;;;;;;;15.00;9.13;;;12.20;90.30;;;;;;5064031;28;20449;-76
2023/05/12 01:23:53;;;;;;;16.17;9.77;;;12.10;90.50;;;;;;5061149;28;20442;-75
2023/05/12 01:26:19;;;;;;;13.77;8.97;;;12.10;90.70;;;;;;5065851;28;20176;-75
2023/05/12 01:28:46;;;;;;;18.60;10.73;;;12.10;90.90;;;;;;5062957;28;20466;-75
2023/05/12 01:31:12;;;;;;;15.43;9.93;;;12.10;90.80;;;;;;5062841;28;20531;-77
2023/05/12 01:33:38;;;;;;;15.00;9.60;;;12.00;90.90;;;;;;5063528;28;20472;-75
2023/05/12 01:36:04;;;;;;;14.30;8.93;;;12.00;91.10;;;;;;5046375;28;20433;-75
2023/05/12 01:38:30;;;;;;;14.90;9.30;;;12.00;91.20;;;;;;5044090;28;20466;-75
2023/05/12 01:40:56;;;;;;;24.03;10.30;;;12.10;91.20;;;;;;5067347;28;20455;-76
2023/05/12 01:43:21;;;;;;;18.57;10.37;;;12.20;91.10;;;;;;5063393;28;20222;-76
2023/05/12 01:45:47;;;;;;;16.47;8.70;;;12.10;91.00;;;;;;5069582;28;20183;-74
2023/05/12 01:48:12;;;;;;;16.13;9.67;;;12.10;91.10;;;;;;5068409;28;20227;-75
2023/05/12 01:50:38;;;;;;;16.03;10.20;;;12.20;91.10;;;;;;5068738;28;20200;-74
2023/05/12 01:53:04;;;;;;;16.63;10.07;;;12.20;91.10;;;;;;5054006;28;20183;-74
2023/05/12 01:55:29;;;;;;;14.63;9.80;;;12.30;91.00;;;;;;5075935;28;20183;-74
2023/05/12 01:57:55;;;;;;;19.10;10.50;;;12.20;90.70;;;;;;5055371;28;20188;-74
2023/05/12 02:00:21;;;;;;;14.43;9.83;;;12.30;90.60;;;;;;5067013;28;20183;-76
2023/05/12 02:02:46;;;;;;;15.63;10.10;;;12.30;90.40;;;;;;5071161;28;20258;-74
2023/05/12 02:05:12;;;;;;;19.90;12.03;;;12.30;90.40;;;;;;5057080;28;20190;-76
2023/05/12 02:07:38;;;;;;;19.40;11.93;;;12.20;90.30;;;;;;5064191;28;20204;-75
2023/05/12 02:10:04;;;;;;;18.50;11.10;;;11.90;91.30;;;;;;5067733;28;20206;-75
2023/05/12 02:12:29;;;;;;;17.73;11.13;;;12.00;91.70;;;;;;5063075;28;20200;-74
2023/05/12 02:14:55;;;;;;;20.33;12.50;;;11.90;91.70;;;;;;5064443;28;20422;-76
2023/05/12 02:17:23;;;;;;;18.80;10.37;;;11.80;91.90;;;;;;5061160;28;20471;-76
2023/05/12 02:19:50;;;;;;;22.10;11.73;;;11.70;92.30;;;;;;5059955;28;20238;-76
2023/05/12 02:22:15;;;;;;;19.50;11.07;;;11.80;92.50;;;;;;5063174;28;20450;-76
2023/05/12 02:24:41;;;;;;;25.07;12.67;;;11.90;92.50;;;;;;5054428;28;20449;-74
2023/05/12 02:27:06;;;;;;;22.33;12.67;;;12.00;92.30;;;;;;5067897;28;20208;-75
2023/05/12 02:29:32;;;;;;;17.77;11.13;;;12.00;92.20;;;;;;5060410;28;20184;-75
2023/05/12 02:31:58;;;;;;;19.93;11.60;;;11.90;92.10;;;;;;5046253;28;20204;-75
2023/05/12 02:34:24;;;;;;;20.23;12.43;;;12.00;92.00;;;;;;5070588;28;20179;-74
2023/05/12 02:36:49;;;;;;;21.10;11.93;;;12.00;92.00;;;;;;5045514;28;20813;-76
2023/05/12 02:39:15;;;;;;;20.50;11.37;;;12.00;91.90;;;;;;5060666;28;20176;-74
2023/05/12 02:41:40;;;;;;;18.90;12.50;;;11.90;91.90;;;;;;5070860;28;20204;-76
2023/05/12 02:44:06;;;;;;;28.93;13.03;;;12.00;91.90;;;;;;5061317;28;20173;-74
2023/05/12 02:46:32;;;;;;;20.17;10.90;;;12.00;91.80;;;;;;5068812;28;20188;-74
2023/05/12 02:48:57;;;;;;;19.73;11.10;;;12.00;91.90;;;;;;5059190;28;20207;-77
2023/05/12 02:51:23;;;;;;;20.20;11.87;;;11.90;91.90;;;;;;5053068;28;20208;-75
2023/05/12 02:53:49;;;;;;;20.03;12.77;;;12.00;91.90;;;;;;5064402;28;20184;-76
2023/05/12 02:56:16;;;;;;;24.30;13.07;;;11.90;91.90;;;;;;5059899;28;20257;-75
2023/05/12 02:58:41;;;;;;;24.47;13.00;;;11.90;92.10;;;;;;5069055;28;20563;-75
2023/05/12 03:01:07;;;;;;;24.17;12.83;;;11.90;92.00;;;;;;5065188;28;20461;-75
2023/05/12 03:03:32;;;;;;;18.33;10.80;;;11.80;92.20;;;;;;5065856;28;20185;-75
2023/05/12 03:05:58;;;;;;;22.73;12.93;;;11.90;92.30;;;;;;5058578;28;20259;-75
2023/05/12 03:08:24;;;;;;;19.77;11.60;;;12.00;92.30;;;;;;5072382;28;20200;-75
2023/05/12 03:10:49;;;;;;;23.10;13.30;;;12.00;92.20;;;;;;5068171;28;20588;-76
2023/05/12 03:13:15;;;;;;;25.30;12.43;;;12.00;91.90;;;;;;5065178;28;20181;-76
2023/05/12 03:15:41;;;;;;;25.47;12.30;;;12.10;91.80;;;;;;5060870;28;20216;-75
2023/05/12 03:18:06;;;;;;;17.40;11.30;;;12.00;91.70;;;;;;5067217;28;20225;-75
2023/05/12 03:20:32;;;;;;;19.97;11.43;;;12.10;91.60;;;;;;5053844;28;20676;-74
2023/05/12 03:22:57;;;;;;;20.30;11.77;;;12.10;91.50;;;;;;5068039;28;20191;-76
2023/05/12 03:25:23;;;;;;;23.07;12.50;;;12.10;91.50;;;;;;5046953;28;20850;-75
2023/05/12 03:27:49;;;;;;;16.87;10.93;;;12.10;91.40;;;;;;5049834;28;20208;-76
2023/05/12 03:30:14;;;;;;;18.80;11.33;;;12.10;91.30;;;;;;5060861;28;20187;-75
2023/05/12 03:32:41;;;;;;;22.87;11.80;;;12.00;91.40;;;;;;5048166;28;20201;-75
2023/05/12 03:35:07;;;;;;;20.90;11.77;;;12.00;91.40;;;;;;5062607;28;20175;-76
2023/05/12 03:37:32;;;;;;;25.00;13.33;;;11.90;91.40;;;;;;5062691;28;20426;-75
2023/05/12 03:39:58;;;;;;;21.70;13.20;;;11.70;91.70;;;;;;5068618;28;20475;-73
2023/05/12 03:42:24;;;;;;;25.53;12.83;;;11.80;92.00;;;;;;5060481;28;20266;-74
2023/05/12 03:44:52;;;;;;;23.77;12.10;;;11.80;92.00;;;;;;5066822;28;20206;-74
2023/05/12 03:47:18;;;;;;;26.00;13.73;;;11.80;91.90;;;;;;5068283;28;20229;-74
2023/05/12 03:49:44;;;;;;;25.03;12.67;;;11.80;91.90;;;;;;5059881;28;20423;-74
2023/05/12 03:52:09;;;;;;;22.70;13.00;;;11.60;92.10;;;;;;5062034;28;20354;-73
2023/05/12 03:54:35;;;;;;;25.90;14.30;;;11.70;92.20;;;;;;5053004;28;20267;-74
2023/05/12 03:57:02;;;;;;;24.20;13.60;;;11.70;92.30;;;;;;5062554;28;20179;-74
2023/05/12 03:59:30;;;;;;;23.97;13.30;;;11.80;92.30;;;;;;5049498;28;20339;-75
2023/05/12 04:01:56;;;;;;;24.30;13.00;;;11.80;92.20;;;;;;5070268;28;20454;-74
2023/05/12 04:04:21;;;;;;;22.93;12.27;;;11.80;92.20;;;;;;5065526;28;20414;-74
2023/05/12 04:06:47;;;;;;;25.23;14.70;;;11.90;92.10;;;;;;5061172;28;20512;-74
2023/05/12 04:09:15;;;;;;;22.77;11.93;;;11.80;91.90;;;;;;5061165;28;20246;-74
2023/05/12 04:11:40;;;;;;;24.50;12.57;;;11.80;91.90;;;;;;5067269;28;20197;-74
2023/05/12 04:14:06;;;;;;;25.23;12.97;;;11.90;91.90;;;;;;5047263;28;20430;-74
2023/05/12 04:16:31;;;;;;;22.97;12.43;;;11.80;91.70;;;;;;5074138;28;20898;-74
2023/05/12 04:18:57;;;;;;;21.90;12.13;;;11.60;91.80;;;;;;5064015;28;20195;-74
2023/05/12 04:21:23;;;;;;;29.47;14.70;;;11.60;92.10;;;;;;5064312;28;20196;-74
2023/05/12 04:23:51;;;;;;;29.27;14.17;;;11.50;92.30;;;;;;5065109;28;20272;-75
2023/05/12 04:26:17;;;;;;;30.17;16.67;;;11.40;92.70;;;;;;5067146;28;20190;-75
2023/05/12 04:28:43;;;;;;;33.87;16.90;;;11.20;92.90;;;;;;5063306;28;20474;-75
2023/05/12 04:31:08;;;;;;;32.93;17.60;;;11.10;93.40;;;;;;5062134;28;20200;-76
2023/05/12 04:33:34;;;;;;;30.43;16.33;;;11.00;94.00;;;;;;5052811;28;20275;-74
2023/05/12 04:36:00;;;;;;;30.90;15.50;;;10.90;94.30;;;;;;5060073;28;20567;-75
2023/05/12 04:38:26;;;;;;;37.53;16.80;;;11.00;94.50;;;;;;5063295;28;20203;-74
2023/05/12 04:40:59;;;;;;;33.77;16.90;;;11.00;94.60;;;;;;5071753;28;20655;-73
2023/05/12 04:43:25;;;;;;;29.63;14.93;;;11.10;94.60;;;;;;5075903;28;20418;-74
2023/05/12 04:45:53;;;;;;;27.93;15.23;;;11.30;94.50;;;;;;5067318;28;20878;-75
2023/05/12 04:48:18;;;;;;;27.17;14.10;;;11.40;94.50;;;;;;5078489;28;20819;-73
2023/05/12 04:50:44;;;;;;;26.20;13.83;;;11.50;94.30;;;;;;5040628;28;20442;-74
2023/05/12 04:53:10;;;;;;;22.80;12.10;;;11.70;94.10;;;;;;5075084;28;20183;-76
2023/05/12 04:55:36;;;;;;;30.43;16.00;;;11.80;93.80;;;;;;5060447;28;20227;-74
2023/05/12 04:58:02;;;;;;;28.60;14.90;;;11.70;93.20;;;;;;5058446;28;20477;-75
2023/05/12 05:00:28;;;;;;;24.93;12.60;;;11.60;92.70;;;;;;5058798;28;20423;-76
2023/05/12 05:02:53;;;;;;;26.60;14.00;;;11.60;92.70;;;;;;5065627;28;20180;-76
2023/05/12 05:05:19;;;;;;;25.60;13.83;;;11.60;92.60;;;;;;5047730;28;20185;-75
2023/05/12 05:07:44;;;;;;;30.27;15.57;;;11.40;92.70;;;;;;5060041;28;20200;-75
2023/05/12 05:10:10;;;;;;;27.67;14.30;;;11.50;92.80;;;;;;5065364;28;20188;-74
2023/05/12 05:12:36;;;;;;;27.60;13.43;;;11.50;92.80;;;;;;5066860;28;20207;-77
2023/05/12 05:15:01;;;;;;;23.80;13.00;;;11.50;92.80;;;;;;5066915;28;20252;-76
2023/05/12 05:17:27;;;;;;;28.80;15.30;;;11.60;92.60;;;;;;5060087;28;20229;-76
2023/05/12 05:19:53;;;;;;;30.00;14.77;;;11.50;92.40;;;;;;5066195;28;20271;-75
2023/05/12 05:22:18;;;;;;;26.43;13.90;;;11.60;92.50;;;;;;5072308;28;20242;-75
2023/05/12 05:24:44;;;;;;;26.07;14.30;;;11.70;92.50;;;;;;5069520;28;20220;-77
2023/05/12 05:27:09;;;;;;;28.30;14.50;;;11.90;92.40;;;;;;5065128;28;20211;-76
2023/05/12 05:29:35;;;;;;;26.23;14.80;;;12.00;92.10;;;;;;5068887;28;20176;-75
2023/05/12 05:32:01;;;;;;;28.80;14.23;;;12.20;92.00;;;;;;5077526;28;20196;-77
2023/05/12 05:34:27;;;;;;;26.90;12.83;;;12.10;91.50;;;;;;5069208;28;20456;-76
2023/05/12 05:36:53;;;;;;;24.47;13.80;;;12.10;91.20;;;;;;5074589;28;20177;-75
2023/05/12 05:39:19;;;;;;;28.57;14.70;;;12.00;90.80;;;;;;5082756;28;20184;-75
2023/05/12 05:41:44;;;;;;;27.63;14.10;;;11.70;91.20;;;;;;5078415;28;20522;-77
2023/05/12 05:44:10;;;;;;;30.17;14.60;;;11.60;91.60;;;;;;5073957;28;20180;-76
2023/05/12 05:46:35;;;;;;;28.60;14.90;;;11.60;91.70;;;;;;5068399;28;20188;-75
2023/05/12 05:49:01;;;;;;;25.40;12.60;;;11.60;91.90;;;;;;5066237;28;20267;-75
2023/05/12 05:51:28;;;;;;;28.43;11.97;;;11.80;92.10;;;;;;5071639;28;20223;-75
2023/05/12 05:53:53;;;;;;;28.10;14.20;;;12.00;91.90;;;;;;5061941;28;20475;-76
2023/05/12 05:56:19;;;;;;;22.00;11.93;;;11.90;91.40;;;;;;5063314;28;20226;-72
2023/05/12 05:58:45;;;;;;;23.10;12.40;;;12.10;91.50;;;;;;5067198;28;20279;-72
2023/05/12 06:01:10;;;;;;;24.33;13.03;;;12.10;91.10;;;;;;5067384;28;20219;-71
2023/05/12 06:03:36;;;;;;;27.50;14.47;;;12.10;90.80;;;;;;5036310;28;20431;-72
2023/05/12 06:06:02;;;;;;;25.63;13.10;;;12.20;90.70;;;;;;5061704;28;20187;-70
2023/05/12 06:08:27;;;;;;;21.27;10.97;;;12.30;90.60;;;;;;5065066;28;20211;-74
2023/05/12 06:10:53;;;;;;;23.83;11.90;;;12.30;90.20;;;;;;5044769;28;20978;-74
2023/05/12 06:13:18;;;;;;;27.83;14.13;;;12.50;90.10;;;;;;5067829;28;20203;-72
2023/05/12 06:15:44;;;;;;;25.00;12.90;;;12.30;89.20;;;;;;5063716;28;20647;-72
2023/05/12 06:18:10;;;;;;;19.53;11.17;;;12.20;89.60;;;;;;5043369;28;20195;-73
2023/05/12 06:20:35;;;;;;;19.37;11.40;;;12.40;89.70;;;;;;5046087;28;20715;-74
2023/05/12 06:23:01;;;;;;;19.13;10.73;;;12.60;89.60;;;;;;5066642;28;20635;-73
2023/05/12 06:25:27;;;;;;;25.23;11.90;;;12.70;88.90;;;;;;5064665;28;20215;-75
2023/05/12 06:27:52;;;;;;;22.17;11.13;;;12.80;88.30;;;;;;5064004;28;20253;-70
2023/05/12 06:30:21;;;;;;;20.23;10.80;;;12.90;88.10;;;;;;5069270;28;20673;-71
2023/05/12 06:32:46;;;;;;;21.57;11.30;;;13.10;87.40;;;;;;5039551;28;20452;-71
2023/05/12 06:35:12;;;;;;;19.27;11.17;;;13.20;86.50;;;;;;5051079;28;20418;-72
2023/05/12 06:37:38;;;;;;;20.40;11.40;;;13.30;86.00;;;;;;5061814;28;20189;-71
2023/05/12 06:40:04;;;;;;;19.27;11.50;;;13.30;85.70;;;;;;5059572;28;20690;-72
2023/05/12 06:42:30;;;;;;;15.70;10.03;;;13.10;85.00;;;;;;5042687;28;20217;-70
2023/05/12 06:44:56;;;;;;;16.17;9.27;;;13.30;85.30;;;;;;5065042;28;20423;-72
2023/05/12 06:47:21;;;;;;;18.23;10.90;;;13.50;85.20;;;;;;5061239;28;20199;-76
2023/05/12 06:49:48;;;;;;;18.07;11.30;;;13.40;84.10;;;;;;5068103;28;20189;-72
2023/05/12 06:52:15;;;;;;;20.00;11.17;;;13.30;84.10;;;;;;5060567;28;20211;-71
2023/05/12 06:54:41;;;;;;;14.53;9.30;;;13.30;84.90;;;;;;5058324;28;20414;-72
2023/05/12 06:57:06;;;;;;;21.57;10.23;;;13.50;84.70;;;;;;5065555;28;20803;-71
2023/05/12 06:59:32;;;;;;;21.60;11.13;;;13.60;84.10;;;;;;5061980;28;20952;-72
2023/05/12 07:01:58;;;;;;;17.37;9.80;;;13.80;83.40;;;;;;5043618;28;20279;-74
2023/05/12 07:04:25;;;;;;;20.13;11.30;;;13.80;83.00;;;;;;5061955;28;20184;-72
2023/05/12 07:06:51;;;;;;;23.17;12.00;;;13.70;82.20;;;;;;5062955;28;20199;-70
2023/05/12 07:09:17;;;;;;;22.73;11.77;;;13.30;83.80;;;;;;5062251;28;21168;-70
2023/05/12 07:11:43;;;;;;;19.60;10.47;;;13.40;84.40;;;;;;5061270;28;20254;-72
2023/05/12 07:14:08;;;;;;;21.03;11.00;;;13.20;84.30;;;;;;5065508;28;20443;-71
2023/05/12 07:16:34;;;;;;;20.10;10.70;;;13.10;84.60;;;;;;5071590;28;20681;-71
2023/05/12 07:19:00;;;;;;;15.73;9.77;;;13.00;85.50;;;;;;5071113;28;20272;-71
2023/05/12 07:21:26;;;;;;;16.50;9.23;;;13.20;85.70;;;;;;5065059;28;20204;-72
2023/05/12 07:23:52;;;;;;;17.73;10.83;;;13.50;85.60;;;;;;5043630;28;20257;-71
2023/05/12 07:26:17;;;;;;;23.63;12.10;;;13.50;85.00;;;;;;5071345;28;20425;-72
2023/05/12 07:28:43;;;;;;;22.70;11.47;;;13.40;84.40;;;;;;5059303;28;20463;-73
2023/05/12 07:31:09;;;;;;;20.40;10.53;;;13.30;85.50;;;;;;5045160;28;20200;-69
2023/05/12 07:33:35;;;;;;;18.23;11.10;;;13.50;85.30;;;;;;5061566;28;20195;-70
2023/05/12 07:36:01;;;;;;;21.00;10.50;;;13.50;85.00;;;;;;5062550;28;20418;-71
2023/05/12 07:38:27;;;;;;;24.23;11.17;;;13.60;84.40;;;;;;5060399;28;20497;-71
2023/05/12 07:40:53;;;;;;;18.17;9.10;;;13.40;84.10;;;;;;5060729;28;20952;-71
2023/05/12 07:43:19;;;;;;;17.80;10.00;;;13.60;84.60;;;;;;5066145;28;20421;-71
2023/05/12 07:45:45;;;;;;;16.60;10.00;;;13.70;83.60;;;;;;5042600;28;20670;-71
2023/05/12 07:48:11;;;;;;;11.87;7.47;;;13.90;83.30;;;;;;5066532;28;20550;-71
2023/05/12 07:50:37;;;;;;;15.50;8.80;;;13.90;82.40;;;;;;5067806;28;20437;-74
2023/05/12 07:53:04;;;;;;;17.07;9.17;;;13.80;81.50;;;;;;5064110;28;20183;-71
2023/05/12 07:55:30;;;;;;;15.50;8.53;;;13.70;81.90;;;;;;5064114;28;20776;-71
2023/05/12 07:57:56;;;;;;;13.30;8.10;;;13.70;81.50;;;;;;5064030;28;20433;-71
2023/05/12 08:00:21;;;;;;;14.23;7.60;;;13.60;82.10;;;;;;5064945;28;20185;-76
2023/05/12 08:02:47;;;;;;;9.80;7.10;;;13.90;81.90;;;;;;5066179;28;20195;-72
2023/05/12 08:05:13;;;;;;;16.30;9.27;;;14.10;80.50;;;;;;5067302;28;20181;-73
2023/05/12 08:07:38;;;;;;;14.20;8.53;;;14.40;80.20;;;;;;5067969;28;20723;-73
2023/05/12 08:10:05;;;;;;;13.80;8.13;;;13.80;80.50;;;;;;5068153;28;20913;-73
2023/05/12 08:12:32;;;;;;;12.70;7.07;;;13.70;81.90;;;;;;5053380;28;20622;-72
2023/05/12 08:14:58;;;;;;;13.80;7.80;;;13.70;81.40;;;;;;5067604;28;20497;-75
2023/05/12 08:17:24;;;;;;;11.10;6.70;;;13.80;81.20;;;;;;5068321;28;20492;-71
2023/05/12 08:19:49;;;;;;;11.10;6.70;;;14.00;80.20;;;;;;5067347;28;20433;-71
2023/05/12 08:22:15;;;;;;;10.27;6.53;;;14.00;80.20;;;;;;5063804;28;20207;-71
2023/05/12 08:24:41;;;;;;;9.57;6.30;;;14.00;79.20;;;;;;5065421;28;20200;-71
2023/05/12 08:27:07;;;;;;;10.00;5.90;;;13.70;79.60;;;;;;5065070;28;20184;-73
2023/05/12 08:29:33;;;;;;;9.50;6.17;;;13.80;80.00;;;;;;5067285;28;20191;-71
2023/05/12 08:31:58;;;;;;;10.77;5.87;;;14.00;79.20;;;;;;5064343;28;20200;-71
2023/05/12 08:34:24;;;;;;;9.57;5.17;;;14.20;78.40;;;;;;5060710;28;20469;-71
2023/05/12 08:36:54;;;;;;;8.07;5.10;;;14.70;77.40;;;;;;5058924;28;20181;-71
2023/05/12 08:39:20;;;;;;;8.10;5.10;;;14.90;75.90;;;;;;5059799;28;20419;-72
2023/05/12 08:42:31;;;;;;;8.27;5.53;;;15.20;75.40;;;;;;5045566;28;20516;-71
2023/05/12 08:44:58;;;;;;;7.47;4.50;;;15.40;74.00;;;;;;5037583;28;20954;-74
2023/05/12 08:47:25;;;;;;;7.70;5.10;;;15.50;73.70;;;;;;5065061;28;21033;-72
2023/05/12 08:50:13;;;;;;;10.30;5.40;;;15.30;73.50;;;;;;5064158;28;20921;-74
2023/05/12 08:52:38;;;;;;;9.30;5.30;;;15.10;75.10;;;;;;5056212;28;20458;-71
2023/05/12 08:55:05;;;;;;;5.93;4.33;;;15.40;74.80;;;;;;5065197;28;20521;-71
2023/05/12 08:57:32;;;;;;;6.10;4.80;;;15.60;74.00;;;;;;5058986;28;20627;-71
2023/05/12 08:59:58;;;;;;;5.40;4.50;;;15.80;73.00;;;;;;5067032;28;20784;-75
2023/05/12 09:02:26;;;;;;;7.50;4.77;;;16.00;72.30;;;;;;5045839;28;20468;-73
2023/05/12 09:04:53;;;;;;;6.83;4.30;;;16.10;72.10;;;;;;5066597;28;20422;-74
2023/05/12 09:07:21;;;;;;;7.53;4.90;;;16.30;71.60;;;;;;5059294;28;20518;-69
2023/05/12 09:09:53;;;;;;;8.40;5.00;;;16.40;70.80;;;;;;5060374;28;20423;-71
2023/05/12 09:12:20;;;;;;;6.40;5.17;;;16.60;71.00;;;;;;5061311;28;20599;-70
2023/05/12 09:14:55;;;;;;;7.57;4.47;;;16.70;70.70;;;;;;5065995;28;20423;-71
2023/05/12 09:17:21;;;;;;;6.40;4.10;;;16.90;70.40;;;;;;5057583;28;20461;-73
2023/05/12 09:19:47;;;;;;;7.57;4.90;;;17.20;68.80;;;;;;5063066;28;20453;-73
2023/05/12 09:22:13;;;;;;;23.27;5.73;;;17.30;67.90;;;;;;5065931;28;20211;-75
2023/05/12 09:24:40;;;;;;;5.93;4.20;;;17.20;68.00;;;;;;5058120;28;20199;-75
2023/05/12 09:27:06;;;;;;;7.90;4.00;;;16.60;67.90;;;;;;5073235;28;20421;-74
2023/05/12 09:29:32;;;;;;;4.53;3.63;;;16.40;69.50;;;;;;5068897;28;20499;-73
2023/05/12 09:32:02;;;;;;;5.50;3.90;;;16.70;69.70;;;;;;5061324;28;20440;-73
2023/05/12 09:34:37;;;;;;;6.10;3.70;;;16.90;68.90;;;;;;5053889;28;20425;-74
2023/05/12 09:37:05;;;;;;;8.90;6.50;;;16.90;68.60;;;;;;5063492;28;20416;-74
2023/05/12 09:39:32;;;;;;;10.10;6.23;;;16.30;69.80;;;;;;5035029;28;20948;-73
2023/05/12 09:41:57;;;;;;;9.97;6.53;;;15.80;71.40;;;;;;5053259;28;20435;-72
2023/05/12 09:44:24;;;;;;;13.13;6.50;;;15.40;72.70;;;;;;5067141;28;20468;-72
2023/05/12 09:46:50;;;;;;;10.07;5.63;;;15.50;73.70;;;;;;5056450;28;20175;-73
2023/05/12 09:49:26;;;;;;;11.63;7.50;;;15.90;73.00;;;;;;5052147;28;20485;-74
2023/05/12 09:51:55;;;;;;;11.63;6.77;;;15.90;72.30;;;;;;5042609;28;20431;-73
2023/05/12 09:54:29;;;;;;;9.20;6.17;;;15.70;72.00;;;;;;5064574;28;20472;-75
2023/05/12 09:57:03;;;;;;;7.80;5.70;;;16.00;72.10;;;;;;5052772;28;20792;-72
2023/05/12 09:59:34;;;;;;;7.43;5.20;;;15.10;72.70;;;;;;5058921;28;20419;-73
2023/05/12 10:02:01;;;;;;;8.93;5.97;;;15.00;74.60;;;;;;5053989;28;20499;-76
2023/05/12 10:04:28;;;;;;;9.37;5.37;;;15.40;73.30;;;;;;5047778;28;20413;-73
2023/05/12 10:06:56;;;;;;;8.90;5.73;;;15.30;72.90;;;;;;5073696;28;20416;-75
2023/05/12 10:09:30;;;;;;;8.97;6.00;;;15.20;73.20;;;;;;5068706;28;20418;-72
2023/05/12 10:11:57;;;;;;;13.10;5.40;;;15.40;72.60;;;;;;5055373;28;20960;-72
2023/05/12 10:14:23;;;;;;;8.17;5.07;;;15.60;73.30;;;;;;5051695;28;20964;-75
2023/05/12 10:16:50;;;;;;;9.60;5.40;;;15.90;72.30;;;;;;5065967;28;20412;-73
2023/05/12 10:19:17;;;;;;;10.60;5.60;;;16.10;71.40;;;;;;5054400;28;20179;-78
2023/05/12 10:21:45;;;;;;;9.43;5.53;;;15.80;71.40;;;;;;5068384;28;20437;-73
2023/05/12 10:24:13;;;;;;;7.50;5.67;;;15.30;73.90;;;;;;5063639;28;20424;-74
2023/05/12 10:26:41;;;;;;;8.63;5.50;;;15.50;73.30;;;;;;5061403;28;20418;-73
2023/05/12 10:29:07;;;;;;;8.67;5.77;;;15.50;72.30;;;;;;5047489;28;20468;-73
2023/05/12 10:31:34;;;;;;;8.17;5.00;;;15.80;72.90;;;;;;5065748;28;20548;-74
2023/05/12 10:34:01;;;;;;;5.87;4.87;;;15.90;71.70;;;;;;5071311;28;20425;-75
2023/05/12 10:36:27;;;;;;;8.00;5.17;;;16.30;72.10;;;;;;5052578;28;20426;-73
2023/05/12 10:38:54;;;;;;;10.10;4.93;;;16.50;70.70;;;;;;5070893;28;20414;-75
2023/05/12 10:41:33;;;;;;;7.97;5.70;;;16.40;71.00;;;;;;5069835;28;20457;-74
2023/05/12 10:43:58;;;;;;;10.73;5.80;;;15.10;74.90;;;;;;5067383;28;20908;-75
2023/05/12 10:46:28;;;;;;;8.23;5.07;;;15.10;75.20;;;;;;5070689;28;20510;-75
2023/05/12 10:48:57;;;;;;;6.73;4.70;;;15.20;75.10;;;;;;5070189;28;20248;-75
2023/05/12 10:51:27;;;;;;;8.30;4.97;;;15.20;74.80;;;;;;5072367;28;20953;-73
2023/05/12 10:54:04;;;;;;;10.50;5.80;;;15.10;76.20;;;;;;5071853;28;20406;-75
2023/05/12 10:56:39;;;;;;;9.00;5.37;;;15.20;76.10;;;;;;5070983;28;20497;-74
2023/05/12 10:59:25;;;;;;;8.57;5.63;;;15.10;77.80;;;;;;5053523;28;20507;-75
2023/05/12 11:02:15;;;;;;;9.43;5.67;;;15.20;78.00;;;;;;5065246;28;20869;-74
2023/05/12 11:04:51;;;;;;;9.17;6.07;;;15.00;77.70;;;;;;5070731;28;20468;-74
2023/05/12 11:07:21;;;;;;;9.03;5.07;;;14.60;79.60;;;;;;5069269;28;20538;-74
2023/05/12 11:09:47;;;;;;;9.40;4.77;;;14.90;78.60;;;;;;5076067;28;20422;-74
2023/05/12 11:12:13;;;;;;;7.33;5.00;;;14.70;78.40;;;;;;5071769;28;20457;-74
2023/05/12 11:14:41;;;;;;;6.80;4.60;;;14.90;78.40;;;;;;5081847;28;20415;-75
2023/05/12 11:17:08;;;;;;;9.27;5.10;;;15.20;77.10;;;;;;5081746;28;20467;-74
2023/05/12 11:19:34;;;;;;;6.10;4.03;;;15.20;76.70;;;;;;5078620;28;21255;-74
2023/05/12 11:22:10;;;;;;;6.77;4.30;;;15.10;77.30;;;;;;5069111;28;20454;-74
2023/05/12 11:24:38;;;;;;;4.70;3.70;;;15.20;77.00;;;;;;5070796;28;20431;-73
2023/05/12 11:27:05;;;;;;;6.00;4.23;;;15.20;77.00;;;;;;5076902;28;20421;-74
2023/05/12 11:29:31;;;;;;;7.40;4.03;;;15.30;76.80;;;;;;5078143;28;20527;-74
2023/05/12 11:31:59;;;;;;;8.00;4.53;;;15.10;78.30;;;;;;5058163;28;20454;-74
2023/05/12 11:34:26;;;;;;;6.53;3.80;;;15.20;80.60;;;;;;5076566;28;20420;-74
2023/05/12 11:36:53;;;;;;;7.67;5.23;;;15.30;81.50;;;;;;5077843;28;20410;-75
2023/05/12 11:39:21;;;;;;;6.90;3.97;;;15.40;81.70;;;;;;5070174;28;20433;-75
2023/05/12 11:41:48;;;;;;;5.90;3.97;;;15.40;81.50;;;;;;5064929;28;20812;-73
2023/05/12 11:44:18;;;;;;;5.60;3.70;;;15.50;81.90;;;;;;5067130;28;20783;-73
2023/05/12 11:47:01;;;;;;;6.57;4.17;;;15.70;81.50;;;;;;5073758;28;21073;-75
2023/05/12 11:49:28;;;;;;;5.13;3.60;;;15.80;81.70;;;;;;5068425;28;20429;-75
2023/05/12 11:51:56;;;;;;;5.30;3.73;;;15.90;81.20;;;;;;5052506;28;20454;-74
2023/05/12 11:54:22;;;;;;;6.10;3.80;;;16.00;81.10;;;;;;5052336;28;20411;-72
2023/05/12 11:56:52;;;;;;;6.43;3.87;;;16.00;81.40;;;;;;5074898;28;20409;-75
2023/05/12 11:59:26;;;;;;;6.80;4.30;;;16.10;81.20;;;;;;5076128;28;20434;-73
2023/05/12 12:01:52;;;;;;;5.87;3.60;;;16.10;80.20;;;;;;5086372;28;20519;-74
2023/05/12 12:04:18;;;;;;;6.60;3.87;;;16.00;79.50;;;;;;5061518;28;20420;-74
2023/05/12 12:06:44;;;;;;;5.40;3.50;;;15.90;80.20;;;;;;5091088;28;20430;-74
2023/05/12 12:09:11;;;;;;;6.93;4.60;;;16.00;80.90;;;;;;5085125;28;20207;-73
2023/05/12 12:11:36;;;;;;;5.10;3.60;;;16.20;80.60;;;;;;5070321;28;20528;-74
2023/05/12 12:14:02;;;;;;;5.93;3.43;;;16.10;80.20;;;;;;5070146;28;20421;-75
2023/05/12 12:16:30;;;;;;;6.97;4.07;;;16.30;80.30;;;;;;5088628;28;20191;-74
2023/05/12 12:18:56;;;;;;;6.93;4.50;;;16.10;78.00;;;;;;5090309;28;20237;-74
2023/05/12 12:21:23;;;;;;;6.20;4.70;;;16.20;78.90;;;;;;5079809;28;20473;-73
2023/05/12 12:23:50;;;;;;;7.03;5.00;;;16.30;77.00;;;;;;5054327;28;20506;-74
2023/05/12 12:26:16;;;;;;;8.77;4.00;;;15.90;78.00;;;;;;5075069;28;20428;-74
2023/05/12 12:28:45;;;;;;;6.53;4.60;;;16.00;79.50;;;;;;5073646;28;20478;-75
2023/05/12 12:31:11;;;;;;;8.40;4.60;;;15.80;76.50;;;;;;5051997;28;20208;-75
2023/05/12 12:33:37;;;;;;;8.43;4.67;;;15.40;79.60;;;;;;5072317;28;20458;-75